createdAt,value
2018-11-11T00:00:04.143Z,21.15
2018-11-11T00:02:39.431Z,19.30
2018-11-11T00:05:14.901Z,17.77
2018-11-11T00:07:50.466Z,23.18
2018-11-11T00:10:26.014Z,25.43
2018-11-11T00:13:01.729Z,20.95
2018-11-11T00:15:37.378Z,22.17
2018-11-11T00:18:12.622Z,22.13
2018-11-11T00:20:48.074Z,21.73
2018-11-11T00:23:23.625Z,22.90
2018-11-11T00:25:58.957Z,18.90
2018-11-11T00:28:34.161Z,16.93
2018-11-11T00:31:09.551Z,16.17
2018-11-11T00:33:45.085Z,18.40
2018-11-11T00:36:20.408Z,17.92
2018-11-11T00:38:55.988Z,15.45
2018-11-11T00:41:31.281Z,21.55
2018-11-11T00:44:07.986Z,17.05
2018-11-11T00:46:43.120Z,16.67
2018-11-11T00:49:18.421Z,22.40
2018-11-11T00:51:53.788Z,15.43
2018-11-11T00:54:29.355Z,15.43
2018-11-11T00:57:04.879Z,15.90
2018-11-11T00:59:40.441Z,18.15
2018-11-11T01:02:15.864Z,16.27
2018-11-11T01:04:51.103Z,16.10
2018-11-11T01:07:26.673Z,15.85
2018-11-11T01:10:01.932Z,15.45
2018-11-11T01:12:37.123Z,15.40
2018-11-11T01:15:14.041Z,17.17
2018-11-11T01:17:49.334Z,14.83
2018-11-11T01:20:24.613Z,15.30
2018-11-11T01:23:00.141Z,17.15
2018-11-11T01:25:35.770Z,15.55
2018-11-11T01:28:11.211Z,17.70
2018-11-11T01:30:46.701Z,18.02
2018-11-11T01:33:22.146Z,18.02
2018-11-11T01:35:57.671Z,14.55
2018-11-11T01:38:33.240Z,17.27
2018-11-11T01:41:09.045Z,15.20
2018-11-11T01:43:44.615Z,17.45
2018-11-11T01:46:20.241Z,18.37
2018-11-11T01:48:55.601Z,16.20
2018-11-11T01:51:30.960Z,18.07
2018-11-11T01:54:06.504Z,23.65
2018-11-11T01:56:41.864Z,17.92
2018-11-11T01:59:17.253Z,17.30
2018-11-11T02:01:52.821Z,17.65
2018-11-11T02:04:28.378Z,20.35
2018-11-11T02:07:03.803Z,20.75
2018-11-11T02:09:39.252Z,23.42
2018-11-11T02:12:14.504Z,25.60
2018-11-11T02:14:50.027Z,23.10
2018-11-11T02:17:25.581Z,19.52
2018-11-11T02:20:01.127Z,30.52
2018-11-11T02:22:36.582Z,33.13
2018-11-11T02:25:12.169Z,28.73
2018-11-11T02:27:47.743Z,29.52
2018-11-11T02:30:23.224Z,26.57
2018-11-11T02:32:58.464Z,36.13
2018-11-11T02:35:33.763Z,28.70
2018-11-11T02:38:09.131Z,30.25
2018-11-11T02:40:44.484Z,34.88
2018-11-11T02:43:19.844Z,22.02
2018-11-11T02:45:55.587Z,27.67
2018-11-11T02:48:31.006Z,26.70
2018-11-11T02:51:06.473Z,27.50
2018-11-11T02:53:41.872Z,25.97
2018-11-11T02:56:17.344Z,37.48
2018-11-11T02:58:52.583Z,32.00
2018-11-11T03:01:27.875Z,30.43
2018-11-11T03:04:03.243Z,34.40
2018-11-11T03:06:38.391Z,40.03
2018-11-11T03:09:14.220Z,32.03
2018-11-11T03:11:49.491Z,39.95
2018-11-11T03:14:24.825Z,30.37
2018-11-11T03:17:00.474Z,27.87
2018-11-11T03:19:35.723Z,32.80
2018-11-11T03:22:10.943Z,29.27
2018-11-11T03:24:46.282Z,29.27
2018-11-11T03:27:21.665Z,27.27
2018-11-11T03:29:57.102Z,32.03
2018-11-11T03:32:32.518Z,33.20
2018-11-11T03:35:09.642Z,31.97
2018-11-11T03:37:45.803Z,25.70
2018-11-11T03:40:21.862Z,34.65
2018-11-11T03:42:57.494Z,37.55
2018-11-11T03:45:32.835Z,32.15
2018-11-11T03:48:08.384Z,46.55
2018-11-11T03:50:43.912Z,39.80
2018-11-11T03:53:19.362Z,29.35
2018-11-11T03:55:54.793Z,40.78
2018-11-11T03:58:30.318Z,31.07
2018-11-11T04:01:05.978Z,36.95
2018-11-11T04:03:41.557Z,45.40
2018-11-11T04:06:17.074Z,40.65
2018-11-11T04:08:52.664Z,38.85
2018-11-11T04:11:28.163Z,30.90
2018-11-11T04:14:03.734Z,43.50
2018-11-11T04:16:39.489Z,38.33
2018-11-11T04:19:15.035Z,31.73
2018-11-11T04:21:50.463Z,42.53
2018-11-11T04:24:26.049Z,28.80
2018-11-11T04:27:01.543Z,39.95
2018-11-11T04:29:37.192Z,46.63
2018-11-11T04:32:12.521Z,38.25
2018-11-11T04:34:47.774Z,31.17
2018-11-11T04:37:23.213Z,37.13
2018-11-11T04:39:58.562Z,46.77
2018-11-11T04:42:33.995Z,39.10
2018-11-11T04:45:11.174Z,40.00
2018-11-11T04:47:47.013Z,35.48
2018-11-11T04:50:22.503Z,46.23
2018-11-11T04:52:57.938Z,44.53
2018-11-11T04:55:33.382Z,39.05
2018-11-11T04:58:08.615Z,42.85
2018-11-11T05:00:44.102Z,36.33
2018-11-11T05:03:19.502Z,39.20
2018-11-11T05:05:54.723Z,40.65
2018-11-11T05:08:30.271Z,39.33
2018-11-11T05:11:05.632Z,39.05
2018-11-11T05:13:40.984Z,51.60
2018-11-11T05:16:16.546Z,41.85
2018-11-11T05:18:51.874Z,41.42
2018-11-11T05:21:27.230Z,46.63
2018-11-11T05:24:04.080Z,46.90
2018-11-11T05:26:39.472Z,42.67
2018-11-11T05:29:15.030Z,35.10
2018-11-11T05:31:50.241Z,35.50
2018-11-11T05:34:25.614Z,38.65
2018-11-11T05:37:01.000Z,48.00
2018-11-11T05:39:36.253Z,38.35
2018-11-11T05:42:11.694Z,41.60
2018-11-11T05:44:47.124Z,41.80
2018-11-11T05:47:22.673Z,43.87
2018-11-11T05:49:58.000Z,38.42
2018-11-11T05:52:33.341Z,42.00
2018-11-11T05:55:09.266Z,37.95
2018-11-11T05:57:44.703Z,39.98
2018-11-11T06:00:20.301Z,30.90
2018-11-11T06:02:56.245Z,44.75
2018-11-11T06:05:31.910Z,36.08
2018-11-11T06:08:07.273Z,37.65
2018-11-11T06:10:42.685Z,35.85
2018-11-11T06:13:18.337Z,28.90
2018-11-11T06:15:54.931Z,33.92
2018-11-11T06:18:30.600Z,42.08
2018-11-11T06:21:06.269Z,32.55
2018-11-11T06:23:42.062Z,40.05
2018-11-11T06:26:17.605Z,29.30
2018-11-11T06:28:53.133Z,27.85
2018-11-11T06:31:28.773Z,30.32
2018-11-11T06:34:04.374Z,32.35
2018-11-11T06:36:39.560Z,40.67
2018-11-11T06:39:15.075Z,33.92
2018-11-11T06:41:50.472Z,31.45
2018-11-11T06:44:26.060Z,29.67
2018-11-11T06:47:01.795Z,23.92
2018-11-11T06:49:37.300Z,26.77
2018-11-11T06:52:12.563Z,32.90
2018-11-11T06:54:47.924Z,26.20
2018-11-11T06:57:23.333Z,29.95
2018-11-11T06:59:58.593Z,30.75
2018-11-11T07:02:36.373Z,27.65
2018-11-11T07:05:11.831Z,28.45
2018-11-11T07:07:47.491Z,29.60
2018-11-11T07:10:22.844Z,27.87
2018-11-11T07:12:58.563Z,27.35
2018-11-11T07:15:34.059Z,24.23
2018-11-11T07:18:09.333Z,23.15
2018-11-11T07:20:44.596Z,21.70
2018-11-11T07:23:19.804Z,20.62
2018-11-11T07:25:55.286Z,20.48
2018-11-11T07:28:30.936Z,18.30
2018-11-11T07:31:07.015Z,20.12
2018-11-11T07:33:42.294Z,19.12
2018-11-11T07:36:17.572Z,19.85
2018-11-11T07:38:52.895Z,15.03
2018-11-11T07:41:28.364Z,16.97
2018-11-11T07:44:10.436Z,14.50
2018-11-11T07:46:45.901Z,20.08
2018-11-11T07:49:21.431Z,15.88
2018-11-11T07:51:56.940Z,12.03
2018-11-11T07:54:32.338Z,14.98
2018-11-11T07:57:07.692Z,12.53
2018-11-11T07:59:43.033Z,11.10
2018-11-11T08:02:18.482Z,10.43
2018-11-11T08:04:53.665Z,15.48
2018-11-11T08:07:29.031Z,12.75
2018-11-11T08:10:04.351Z,12.55
2018-11-11T08:12:39.663Z,11.43
2018-11-11T08:15:14.983Z,13.00
2018-11-11T08:17:50.433Z,12.15
2018-11-11T08:20:25.805Z,15.23
2018-11-11T08:23:01.185Z,18.87
2018-11-11T08:25:36.874Z,13.85
2018-11-11T08:28:12.204Z,13.28
2018-11-11T08:30:47.638Z,16.95
2018-11-11T08:33:22.907Z,13.05
2018-11-11T08:35:58.351Z,11.78
2018-11-11T08:38:33.905Z,11.28
2018-11-11T08:41:09.305Z,11.08
2018-11-11T08:43:44.612Z,13.40
2018-11-11T08:46:20.317Z,16.30
2018-11-11T08:48:55.718Z,10.90
2018-11-11T08:51:31.165Z,11.50
2018-11-11T08:54:06.685Z,26.95
2018-11-11T08:56:42.033Z,14.18
2018-11-11T08:59:17.524Z,12.98
2018-11-11T09:01:52.805Z,9.68
2018-11-11T09:04:28.326Z,33.67
2018-11-11T09:07:03.605Z,72.10
2018-11-11T09:09:39.042Z,19.67
2018-11-11T09:12:14.611Z,14.20
2018-11-11T09:14:49.919Z,10.88
2018-11-11T09:17:25.200Z,13.58
2018-11-11T09:20:00.636Z,9.05
2018-11-11T09:22:36.251Z,12.53
2018-11-11T09:25:11.937Z,10.93
2018-11-11T09:27:47.414Z,11.80
2018-11-11T09:30:23.106Z,10.08
2018-11-11T09:32:58.574Z,10.05
2018-11-11T09:35:33.873Z,10.90
2018-11-11T09:38:09.398Z,15.75
2018-11-11T09:40:44.995Z,10.60
2018-11-11T09:43:20.711Z,9.30
2018-11-11T09:45:56.031Z,9.53
2018-11-11T09:48:31.394Z,10.53
2018-11-11T09:51:06.955Z,9.50
2018-11-11T09:53:42.258Z,10.48
2018-11-11T09:56:17.580Z,10.55
2018-11-11T09:58:52.845Z,12.93
2018-11-11T10:01:28.240Z,9.75
2018-11-11T10:04:07.724Z,11.68
2018-11-11T10:06:47.526Z,7.45
2018-11-11T10:09:45.957Z,7.80
2018-11-11T10:12:27.448Z,10.23
2018-11-11T10:15:12.505Z,9.23
2018-11-11T10:17:51.924Z,6.85
2018-11-11T10:20:32.451Z,7.85
2018-11-11T10:23:15.010Z,12.82
2018-11-11T10:26:08.577Z,9.88
2018-11-11T10:28:54.195Z,7.70
2018-11-11T10:31:49.773Z,6.65
2018-11-11T10:34:31.468Z,9.13
2018-11-11T10:37:29.532Z,10.72
2018-11-11T10:40:44.208Z,8.00
2018-11-11T10:44:24.757Z,9.25
2018-11-11T10:47:03.429Z,7.47
2018-11-11T10:49:42.466Z,8.33
2018-11-11T10:52:18.061Z,7.72
2018-11-11T10:54:53.363Z,10.32
2018-11-11T10:57:29.006Z,9.23
2018-11-11T11:00:04.540Z,7.22
2018-11-11T11:02:45.081Z,8.80
2018-11-11T11:05:20.520Z,8.30
2018-11-11T11:07:56.356Z,6.80
2018-11-11T11:10:31.906Z,10.20
2018-11-11T11:13:07.437Z,7.17
2018-11-11T11:15:42.924Z,7.28
2018-11-11T11:18:18.258Z,10.55
2018-11-11T11:20:53.486Z,7.05
2018-11-11T11:23:28.944Z,9.18
2018-11-11T11:26:04.488Z,6.95
2018-11-11T11:28:39.845Z,7.03
2018-11-11T11:31:15.447Z,8.50
2018-11-11T11:33:50.905Z,6.50
2018-11-11T11:36:27.023Z,7.60
2018-11-11T11:39:03.111Z,5.97
2018-11-11T11:41:38.722Z,11.40
2018-11-11T11:44:14.515Z,7.03
2018-11-11T11:46:49.873Z,6.95
2018-11-11T11:49:25.735Z,7.58
2018-11-11T11:52:01.545Z,7.35
2018-11-11T11:54:36.941Z,9.20
2018-11-11T11:57:12.419Z,6.70
2018-11-11T11:59:47.845Z,7.10
2018-11-11T12:02:29.893Z,7.87
2018-11-11T12:05:05.815Z,6.03
2018-11-11T12:07:41.305Z,7.78
2018-11-11T12:10:16.760Z,5.75
2018-11-11T12:12:52.451Z,8.83
2018-11-11T12:15:28.067Z,6.08
2018-11-11T12:18:03.703Z,5.97
2018-11-11T12:20:39.465Z,7.90
2018-11-11T12:23:15.431Z,5.83
2018-11-11T12:25:50.875Z,7.83
2018-11-11T12:28:26.286Z,7.60
2018-11-11T12:31:01.862Z,5.92
2018-11-11T12:33:37.511Z,8.63
2018-11-11T12:36:13.122Z,3.55
2018-11-11T12:38:48.500Z,5.22
2018-11-11T12:41:23.993Z,6.28
2018-11-11T12:43:59.595Z,4.97
2018-11-11T12:46:35.309Z,5.15
2018-11-11T12:49:10.932Z,6.00
2018-11-11T12:51:46.667Z,5.25
2018-11-11T12:54:22.054Z,4.65
2018-11-11T12:56:57.297Z,4.97
2018-11-11T12:59:32.663Z,6.15
2018-11-11T13:02:08.080Z,6.12
2018-11-11T13:04:43.681Z,6.50
2018-11-11T13:07:19.084Z,7.90
2018-11-11T13:09:54.623Z,5.12
2018-11-11T13:12:30.305Z,5.53
2018-11-11T13:15:05.995Z,5.75
2018-11-11T13:17:42.018Z,7.20
2018-11-11T13:20:18.504Z,7.85
2018-11-11T13:22:54.260Z,7.80
2018-11-11T13:25:29.723Z,6.40
2018-11-11T13:28:05.494Z,8.38
2018-11-11T13:30:40.784Z,5.60
2018-11-11T13:33:16.383Z,4.83
2018-11-11T13:35:51.903Z,6.33
2018-11-11T13:38:28.040Z,7.95
2018-11-11T13:41:03.616Z,8.80
2018-11-11T13:43:39.388Z,6.60
2018-11-11T13:46:14.700Z,7.17
2018-11-11T13:48:50.585Z,8.80
2018-11-11T13:51:26.047Z,8.63
2018-11-11T13:54:01.454Z,8.45
2018-11-11T13:56:37.160Z,3.10
2018-11-11T13:59:12.359Z,1.60
2018-11-11T14:01:47.786Z,1.50
2018-11-11T14:04:23.063Z,2.08
2018-11-11T14:06:58.562Z,1.50
2018-11-11T14:09:33.992Z,1.80
2018-11-11T14:12:09.487Z,1.50
2018-11-11T14:14:45.141Z,2.45
2018-11-11T14:17:20.561Z,1.50
2018-11-11T14:19:56.034Z,1.47
2018-11-11T14:22:31.421Z,1.47
2018-11-11T14:25:09.227Z,1.70
2018-11-11T14:27:45.156Z,1.50
2018-11-11T14:30:21.914Z,1.50
2018-11-11T14:32:58.126Z,1.50
2018-11-11T14:35:33.615Z,1.50
2018-11-11T14:38:09.095Z,3.15
2018-11-11T14:40:44.626Z,1.50
2018-11-11T14:43:20.034Z,1.40
2018-11-11T14:45:55.343Z,1.50
2018-11-11T14:48:30.733Z,7.33
2018-11-11T14:51:06.577Z,12.33
2018-11-11T14:53:42.220Z,4.97
2018-11-11T14:56:17.725Z,5.05
2018-11-11T14:58:53.596Z,10.90
2018-11-11T15:01:28.826Z,10.80
2018-11-11T15:04:04.033Z,6.60
2018-11-11T15:06:39.513Z,9.80
2018-11-11T15:09:14.893Z,8.25
2018-11-11T15:11:50.457Z,10.28
2018-11-11T15:14:26.091Z,11.03
2018-11-11T15:17:01.768Z,10.80
2018-11-11T15:19:37.320Z,9.23
2018-11-11T15:22:12.744Z,9.15
2018-11-11T15:24:49.222Z,10.10
2018-11-11T15:27:24.786Z,8.78
2018-11-11T15:30:00.416Z,11.55
2018-11-11T15:32:35.924Z,13.68
2018-11-11T15:35:11.535Z,8.78
2018-11-11T15:37:46.850Z,16.52
2018-11-11T15:40:23.623Z,9.98
2018-11-11T15:42:59.469Z,9.45
2018-11-11T15:45:35.532Z,10.72
2018-11-11T15:48:11.051Z,9.38
2018-11-11T15:50:46.466Z,14.68
2018-11-11T15:53:22.049Z,10.85
2018-11-11T15:55:57.685Z,7.42
2018-11-11T15:58:33.069Z,7.67
2018-11-11T16:01:08.696Z,7.10
2018-11-11T16:03:44.100Z,4.70
2018-11-11T16:06:19.536Z,10.90
2018-11-11T16:08:55.004Z,8.68
2018-11-11T16:11:30.353Z,9.08
2018-11-11T16:14:06.095Z,9.90
2018-11-11T16:16:41.527Z,14.13
2018-11-11T16:19:16.844Z,11.45
2018-11-11T16:21:52.168Z,9.25
2018-11-11T16:24:27.453Z,7.20
2018-11-11T16:27:02.947Z,9.43
2018-11-11T16:29:38.436Z,8.23
2018-11-11T16:32:13.931Z,10.20
2018-11-11T16:34:49.140Z,11.12
2018-11-11T16:37:24.465Z,6.83
2018-11-11T16:39:59.645Z,8.90
2018-11-11T16:42:35.140Z,7.50
2018-11-11T16:45:11.880Z,7.72
2018-11-11T16:47:47.272Z,6.90
2018-11-11T16:50:24.752Z,9.75
2018-11-11T16:53:01.665Z,8.60
2018-11-11T16:55:37.793Z,15.72
2018-11-11T16:58:13.202Z,9.33
2018-11-11T17:00:48.890Z,7.37
2018-11-11T17:03:24.271Z,9.10
2018-11-11T17:05:59.631Z,10.15
2018-11-11T17:08:35.009Z,7.67
2018-11-11T17:11:10.490Z,7.85
2018-11-11T17:13:45.960Z,7.75
2018-11-11T17:16:21.416Z,8.63
2018-11-11T17:18:56.973Z,8.03
2018-11-11T17:21:32.742Z,12.45
2018-11-11T17:24:07.890Z,7.35
2018-11-11T17:26:43.309Z,10.10
2018-11-11T17:29:18.782Z,10.28
2018-11-11T17:31:54.116Z,11.08
2018-11-11T17:34:29.675Z,9.33
2018-11-11T17:37:05.236Z,7.33
2018-11-11T17:39:40.530Z,11.03
2018-11-11T17:42:15.794Z,10.25
2018-11-11T17:44:51.119Z,8.70
2018-11-11T17:47:26.557Z,7.67
2018-11-11T17:50:02.311Z,12.35
2018-11-11T17:52:37.970Z,8.80
2018-11-11T17:55:14.884Z,9.15
2018-11-11T17:57:50.322Z,7.70
2018-11-11T18:00:26.630Z,9.53
2018-11-11T18:03:02.704Z,10.93
2018-11-11T18:05:38.048Z,8.73
2018-11-11T18:08:13.896Z,8.88
2018-11-11T18:10:49.400Z,8.03
2018-11-11T18:13:24.819Z,9.25
2018-11-11T18:16:00.342Z,8.00
2018-11-11T18:18:35.870Z,7.55
2018-11-11T18:21:11.433Z,11.95
2018-11-11T18:23:46.874Z,9.33
2018-11-11T18:26:22.198Z,8.23
2018-11-11T18:28:57.459Z,7.70
2018-11-11T18:31:33.184Z,12.18
2018-11-11T18:34:08.823Z,7.60
2018-11-11T18:36:43.994Z,7.65
2018-11-11T18:39:19.549Z,9.15
2018-11-11T18:41:54.935Z,7.70
2018-11-11T18:44:30.463Z,7.12
2018-11-11T18:47:06.004Z,9.63
2018-11-11T18:49:41.282Z,18.12
2018-11-11T18:52:16.690Z,7.65
2018-11-11T18:54:51.984Z,6.87
2018-11-11T18:57:27.392Z,8.13
2018-11-11T19:00:02.724Z,16.65
2018-11-11T19:02:38.114Z,7.25
2018-11-11T19:05:14.582Z,7.67
2018-11-11T19:07:50.257Z,8.83
2018-11-11T19:10:27.021Z,7.67
2018-11-11T19:13:08.835Z,10.53
2018-11-11T19:15:44.372Z,8.68
2018-11-11T19:18:19.695Z,9.20
2018-11-11T19:20:55.158Z,6.87
2018-11-11T19:23:30.696Z,9.23
2018-11-11T19:26:06.760Z,11.80
2018-11-11T19:28:42.115Z,10.60
2018-11-11T19:31:17.361Z,14.53
2018-11-11T19:33:52.854Z,6.97
2018-11-11T19:36:28.267Z,7.90
2018-11-11T19:39:03.791Z,10.53
2018-11-11T19:41:39.808Z,7.80
2018-11-11T19:44:15.419Z,7.70
2018-11-11T19:46:50.835Z,5.20
2018-11-11T19:49:26.435Z,8.15
2018-11-11T19:52:01.847Z,14.58
2018-11-11T19:54:37.254Z,10.00
2018-11-11T19:57:12.592Z,8.75
2018-11-11T19:59:47.893Z,6.40
2018-11-11T20:02:23.094Z,8.33
2018-11-11T20:04:58.464Z,6.33
2018-11-11T20:07:33.805Z,8.88
2018-11-11T20:10:11.006Z,8.43
2018-11-11T20:12:46.534Z,9.98
2018-11-11T20:15:23.485Z,6.47
2018-11-11T20:17:58.993Z,5.58
2018-11-11T20:20:36.664Z,9.73
2018-11-11T20:23:12.272Z,8.03
2018-11-11T20:25:47.843Z,7.78
2018-11-11T20:28:23.505Z,8.10
2018-11-11T20:30:59.000Z,8.78
2018-11-11T20:33:34.568Z,8.85
2018-11-11T20:36:10.006Z,6.05
2018-11-11T20:38:45.461Z,12.23
2018-11-11T20:41:20.797Z,6.60
2018-11-11T20:43:56.371Z,4.75
2018-11-11T20:46:31.881Z,5.53
2018-11-11T20:49:07.587Z,7.40
2018-11-11T20:51:43.135Z,4.35
2018-11-11T20:54:18.656Z,5.80
2018-11-11T20:56:54.105Z,4.90
2018-11-11T20:59:29.341Z,6.00
2018-11-11T21:02:04.666Z,7.58
2018-11-11T21:04:40.120Z,9.33
2018-11-11T21:07:15.552Z,5.25
2018-11-11T21:09:50.870Z,5.12
2018-11-11T21:12:26.324Z,6.42
2018-11-11T21:15:01.807Z,8.30
2018-11-11T21:17:37.231Z,7.62
2018-11-11T21:20:14.943Z,1.40
2018-11-11T21:22:50.530Z,1.40
2018-11-11T21:25:26.068Z,1.40
2018-11-11T21:28:01.541Z,1.40
2018-11-11T21:30:36.960Z,1.40
2018-11-11T21:33:12.331Z,1.40
2018-11-11T21:35:48.012Z,1.40
2018-11-11T21:38:23.553Z,1.70
2018-11-11T21:40:59.313Z,1.50
2018-11-11T21:43:34.873Z,1.40
2018-11-11T21:46:10.231Z,1.40
2018-11-11T21:48:45.441Z,1.40
2018-11-11T21:51:20.903Z,1.60
2018-11-11T21:53:56.493Z,1.40
2018-11-11T21:56:31.790Z,1.50
2018-11-11T21:59:07.498Z,1.50
2018-11-11T22:01:43.108Z,1.40
2018-11-11T22:04:18.554Z,1.60
2018-11-11T22:06:53.995Z,1.40
2018-11-11T22:09:29.482Z,1.40
2018-11-11T22:12:05.021Z,1.50
2018-11-11T22:14:40.193Z,1.40
2018-11-11T22:17:15.660Z,1.80
2018-11-11T22:19:50.994Z,1.40
2018-11-11T22:22:26.348Z,1.67
2018-11-11T22:25:01.451Z,1.40
2018-11-11T22:27:37.173Z,1.40
2018-11-11T22:30:12.868Z,1.50
2018-11-11T22:32:48.240Z,1.40
2018-11-11T22:35:23.555Z,1.70
2018-11-11T22:37:58.891Z,1.40
2018-11-11T22:40:34.232Z,1.40
2018-11-11T22:43:09.680Z,1.70
2018-11-11T22:45:45.129Z,2.55
2018-11-11T22:48:20.893Z,2.37
2018-11-11T22:50:56.335Z,1.55
2018-11-11T22:53:31.895Z,3.17
2018-11-11T22:56:07.416Z,1.70
2018-11-11T22:58:42.851Z,5.25
2018-11-11T23:01:22.315Z,1.50
2018-11-11T23:03:57.851Z,1.70
2018-11-11T23:06:33.183Z,2.40
2018-11-11T23:09:10.861Z,1.80
2018-11-11T23:11:46.990Z,1.40
2018-11-11T23:14:22.292Z,1.40
2018-11-11T23:16:57.526Z,2.45
2018-11-11T23:19:33.095Z,1.70
2018-11-11T23:22:08.724Z,3.45
2018-11-11T23:24:44.393Z,1.42
2018-11-11T23:27:20.192Z,1.40
2018-11-11T23:29:55.891Z,1.50
2018-11-11T23:32:31.561Z,1.40
2018-11-11T23:35:07.653Z,1.37
2018-11-11T23:37:43.420Z,1.42
2018-11-11T23:40:19.640Z,1.40
2018-11-11T23:42:55.059Z,1.40
2018-11-11T23:45:30.705Z,1.70
2018-11-11T23:48:06.853Z,1.50
2018-11-11T23:50:42.155Z,1.40
2018-11-11T23:53:17.685Z,1.40
2018-11-11T23:55:53.124Z,1.40
2018-11-11T23:58:28.346Z,1.40
